Time;durP1;ratioP1;P1;durP2;ratioP2;P2;SDS_P1;SDS_P2;PMS_P1;PMS_P2;Temp;Humidity;BMP_temperature;BMP_pressure;BME280_temperature;BME280_humidity;BME280_pressure;Samples;Min_cycle;Max_cycle;Signal;HPM_P1;HPM_P2
2023/07/09 00:02:17;;;;;;;14.52;9.40;;;;;;;24.62;100.00;101648.63;4926909;29;20052;-67
2023/07/09 00:04:44;;;;;;;13.85;8.98;;;;;;;24.59;100.00;101647.22;4908672;29;20055;-67
2023/07/09 00:07:22;;;;;;;14.68;9.48;;;;;;;24.61;100.00;101647.00;4917009;28;20090;-66
2023/07/09 00:09:49;;;;;;;16.70;9.70;;;;;;;24.57;100.00;101645.81;4926056;29;20115;-66
2023/07/09 00:12:18;;;;;;;14.45;9.55;;;;;;;24.57;100.00;101635.06;4904339;29;20484;-66
2023/07/09 00:14:45;;;;;;;17.35;9.98;;;;;;;24.54;100.00;101643.53;4926587;29;20058;-67
2023/07/09 00:17:21;;;;;;;13.45;8.98;;;;;;;24.47;100.00;101630.19;4923408;28;20508;-68
2023/07/09 00:19:47;;;;;;;13.07;9.00;;;;;;;24.44;100.00;101636.81;4924448;29;20052;-67
2023/07/09 00:22:16;;;;;;;11.93;9.20;;;;;;;24.40;100.00;101634.75;4926114;29;20090;-66
2023/07/09 00:24:44;;;;;;;12.23;9.35;;;;;;;24.35;100.00;101637.31;4916697;29;20048;-67
2023/07/09 00:27:12;;;;;;;17.63;8.93;;;;;;;24.32;100.00;101648.44;4927205;29;20051;-66
2023/07/09 00:29:39;;;;;;;;;;;;;;;24.31;100.00;101638.78;4922478;29;20585;-69
2023/07/09 00:32:15;;;;;;;13.70;8.93;;;;;;;24.29;100.00;101639.00;4928545;29;19927;-68
2023/07/09 00:34:50;;;;;;;13.45;8.73;;;;;;;24.25;100.00;101632.44;4913495;28;20275;-68
2023/07/09 00:37:19;;;;;;;14.02;9.52;;;;;;;24.23;100.00;101639.88;4926241;29;20048;-66
2023/07/09 00:39:47;;;;;;;14.18;9.10;;;;;;;24.23;100.00;101645.22;4928234;29;20075;-67
2023/07/09 00:42:17;;;;;;;12.13;8.32;;;;;;;24.21;100.00;101648.13;4927115;29;20458;-66
2023/07/09 00:44:45;;;;;;;14.43;9.02;;;;;;;24.17;100.00;101649.59;4928986;29;20043;-67
2023/07/09 00:47:18;;;;;;;13.18;8.80;;;;;;;24.14;100.00;101643.84;4920620;29;20063;-66
2023/07/09 00:49:47;;;;;;;11.85;9.30;;;;;;;24.12;100.00;101649.41;4927134;29;20051;-65
2023/07/09 00:52:24;;;;;;;16.15;8.93;;;;;;;24.10;100.00;101651.47;4922877;29;20793;-66
2023/07/09 00:54:52;;;;;;;11.75;8.70;;;;;;;24.08;100.00;101656.25;4913583;29;20054;-69
2023/07/09 00:57:23;;;;;;;14.48;8.85;;;;;;;24.10;100.00;101656.03;4926527;29;20048;-66
2023/07/09 00:59:58;;;;;;;14.52;9.63;;;;;;;24.07;100.00;101651.91;4913269;29;20405;-67
2023/07/09 01:02:25;;;;;;;11.32;8.85;;;;;;;24.04;100.00;101653.16;4926316;29;20162;-68
2023/07/09 01:04:55;;;;;;;13.93;9.27;;;;;;;24.01;100.00;101650.09;4923181;28;20059;-68
2023/07/09 01:07:23;;;;;;;12.13;8.63;;;;;;;24.00;100.00;101651.97;4931179;29;20698;-68
2023/07/09 01:09:49;;;;;;;13.32;9.00;;;;;;;23.96;100.00;101650.75;4926071;29;20817;-67
2023/07/09 01:12:20;;;;;;;13.93;9.20;;;;;;;23.95;100.00;101650.97;4930544;29;20083;-67
2023/07/09 01:14:51;;;;;;;14.13;9.50;;;;;;;23.92;100.00;101648.72;4918034;29;20051;-70
2023/07/09 01:17:18;;;;;;;13.05;8.88;;;;;;;23.87;100.00;101652.88;4923025;29;20079;-67
2023/07/09 01:19:50;;;;;;;13.20;8.97;;;;;;;23.87;100.00;101650.19;4925483;29;20089;-70
2023/07/09 01:22:18;;;;;;;14.80;9.25;;;;;;;23.80;100.00;101648.59;4927712;29;20052;-67
2023/07/09 01:25:02;;;;;;;11.48;8.75;;;;;;;23.83;100.00;101648.13;4923776;29;20055;-68
2023/07/09 01:27:38;;;;;;;14.07;9.32;;;;;;;23.84;100.00;101655.16;4921941;29;20060;-67
2023/07/09 01:30:09;;;;;;;12.98;9.00;;;;;;;23.80;100.00;101653.94;4910159;29;20134;-67
2023/07/09 01:32:37;;;;;;;12.95;9.30;;;;;;;23.78;100.00;101648.78;4921132;29;20435;-71
2023/07/09 01:35:06;;;;;;;14.50;9.07;;;;;;;23.78;100.00;101651.47;4926171;29;20056;-67
2023/07/09 01:37:36;;;;;;;14.70;9.50;;;;;;;23.75;100.00;101643.81;4908990;29;20068;-68
2023/07/09 01:40:05;;;;;;;13.90;9.80;;;;;;;23.70;100.00;101646.34;4927757;29;20059;-68
2023/07/09 01:42:45;;;;;;;13.93;9.27;;;;;;;23.66;100.00;101642.44;4918997;29;20055;-69
2023/07/09 01:45:13;;;;;;;13.48;9.85;;;;;;;23.66;100.00;101640.59;4925328;29;20151;-66
2023/07/09 01:47:42;;;;;;;13.77;9.52;;;;;;;23.62;100.00;101643.88;4926034;29;20056;-68
2023/07/09 01:50:10;;;;;;;13.30;9.55;;;;;;;23.64;100.00;101657.91;4907968;29;20136;-67
2023/07/09 01:52:41;;;;;;;14.02;9.88;;;;;;;23.62;100.00;101652.75;4929149;29;20126;-68
2023/07/09 01:55:13;;;;;;;12.77;10.15;;;;;;;23.59;100.00;101663.06;4922270;29;20102;-66
2023/07/09 01:57:40;;;;;;;11.95;9.80;;;;;;;23.55;100.00;101659.19;4925859;29;20087;-68
2023/07/09 02:00:11;;;;;;;12.85;9.45;;;;;;;23.54;100.00;101657.50;4919602;29;20449;-67
2023/07/09 02:02:42;;;;;;;13.32;9.82;;;;;;;23.47;100.00;101666.41;4930009;29;20138;-66
2023/07/09 02:05:12;;;;;;;14.35;9.57;;;;;;;23.42;100.00;101665.38;4931635;29;20066;-67
2023/07/09 02:07:38;;;;;;;13.15;10.23;;;;;;;23.39;100.00;101657.81;4924760;28;20052;-67
2023/07/09 02:10:05;;;;;;;14.57;10.65;;;;;;;23.36;100.00;101659.03;4929087;29;20056;-67
2023/07/09 02:12:32;;;;;;;15.43;11.10;;;;;;;23.34;100.00;101660.28;4913490;28;20089;-67
2023/07/09 02:14:58;;;;;;;14.60;10.82;;;;;;;23.29;100.00;101675.13;4926650;29;20050;-69
2023/07/09 02:17:25;;;;;;;14.60;10.57;;;;;;;23.25;100.00;101663.19;4925321;28;20091;-66
2023/07/09 02:19:51;;;;;;;15.68;10.77;;;;;;;23.19;100.00;101668.53;4930444;29;20714;-68
2023/07/09 02:22:19;;;;;;;16.27;10.88;;;;;;;23.18;100.00;101669.59;4930007;29;20428;-68
2023/07/09 02:24:45;;;;;;;14.82;10.65;;;;;;;23.13;100.00;101666.72;4921717;28;20464;-67
2023/07/09 02:27:16;;;;;;;15.05;10.85;;;;;;;23.09;100.00;101664.47;4913633;29;20102;-68
2023/07/09 02:29:42;;;;;;;15.73;10.27;;;;;;;23.05;100.00;101665.91;4922815;29;20102;-67
2023/07/09 02:32:13;;;;;;;13.00;9.98;;;;;;;22.98;100.00;101670.41;4927228;29;20059;-67
2023/07/09 02:34:40;;;;;;;16.95;10.63;;;;;;;22.96;100.00;101671.66;4924304;29;20634;-67
2023/07/09 02:37:06;;;;;;;13.55;10.40;;;;;;;22.96;100.00;101666.31;4929746;29;20055;-67
2023/07/09 02:39:33;;;;;;;14.60;11.00;;;;;;;22.97;100.00;101670.63;4924305;29;20055;-68
2023/07/09 02:41:59;;;;;;;19.17;11.15;;;;;;;22.94;100.00;101671.06;4916082;29;20501;-68
2023/07/09 02:44:25;;;;;;;16.15;10.70;;;;;;;22.92;100.00;101678.47;4913700;29;20520;-68
2023/07/09 02:46:52;;;;;;;16.13;11.60;;;;;;;22.93;100.00;101682.75;4907106;29;20059;-68
2023/07/09 02:49:18;;;;;;;14.23;10.48;;;;;;;22.94;100.00;101687.91;4928429;29;20055;-67
2023/07/09 02:51:45;;;;;;;14.70;11.13;;;;;;;22.92;100.00;101681.94;4923325;29;20511;-66
2023/07/09 02:54:11;;;;;;;16.30;11.02;;;;;;;22.90;100.00;101684.00;4922270;29;21096;-67
2023/07/09 02:56:38;;;;;;;14.35;10.70;;;;;;;22.89;100.00;101687.72;4929053;29;20064;-67
2023/07/09 02:59:05;;;;;;;14.90;10.80;;;;;;;22.89;100.00;101685.88;4910827;29;20055;-67
2023/07/09 03:01:34;;;;;;;14.75;10.88;;;;;;;22.85;100.00;101687.28;4930041;29;20098;-67
2023/07/09 03:04:02;;;;;;;16.98;10.40;;;;;;;22.82;100.00;101690.41;4924627;29;20057;-67
2023/07/09 03:06:34;;;;;;;14.65;10.52;;;;;;;22.85;100.00;101689.16;4925460;29;20839;-68
2023/07/09 03:09:02;;;;;;;16.60;10.93;;;;;;;22.80;100.00;101684.44;4919507;29;20418;-69
2023/07/09 03:11:31;;;;;;;14.63;10.52;;;;;;;22.78;100.00;101683.00;4927913;29;20142;-68
2023/07/09 03:13:58;;;;;;;15.80;10.35;;;;;;;22.71;100.00;101683.81;4923081;29;20127;-68
2023/07/09 03:16:30;;;;;;;17.40;9.52;;;;;;;22.68;100.00;101689.56;4921229;29;20054;-67
2023/07/09 03:18:57;;;;;;;12.88;9.82;;;;;;;22.68;100.00;101680.75;4926689;29;20107;-67
2023/07/09 03:21:25;;;;;;;13.00;9.32;;;;;;;22.66;100.00;101678.25;4920214;28;20056;-68
2023/07/09 03:23:52;;;;;;;13.05;9.27;;;;;;;22.64;100.00;101683.00;4925206;29;20315;-67
2023/07/09 03:26:19;;;;;;;11.90;9.32;;;;;;;22.61;100.00;101678.06;4916418;29;20059;-67
2023/07/09 03:28:45;;;;;;;12.68;9.50;;;;;;;22.57;100.00;101684.03;4928010;29;20110;-67
2023/07/09 03:31:12;;;;;;;15.27;9.45;;;;;;;22.56;100.00;101685.03;4930835;29;20051;-68
2023/07/09 03:33:38;;;;;;;10.90;9.07;;;;;;;22.55;100.00;101692.25;4924133;29;20052;-71
2023/07/09 03:36:05;;;;;;;11.55;9.57;;;;;;;22.48;100.00;101681.56;4925094;29;20485;-67
2023/07/09 03:38:32;;;;;;;14.98;9.95;;;;;;;22.45;100.00;101681.94;4923299;29;20110;-68
2023/07/09 03:40:59;;;;;;;13.30;10.13;;;;;;;22.42;100.00;101679.69;4930797;29;20059;-67
2023/07/09 03:43:25;;;;;;;14.80;9.98;;;;;;;22.39;100.00;101682.78;4907973;29;20123;-70
2023/07/09 03:45:52;;;;;;;14.38;10.15;;;;;;;22.38;100.00;101686.47;4929314;29;20090;-69
2023/07/09 03:48:19;;;;;;;17.08;11.40;;;;;;;22.33;100.00;101682.78;4918897;29;20955;-68
2023/07/09 03:50:47;;;;;;;15.93;12.18;;;;;;;22.36;100.00;101691.19;4918995;29;20122;-68
2023/07/09 03:53:15;;;;;;;14.68;10.63;;;;;;;22.38;100.00;101688.31;4931146;29;20185;-68
2023/07/09 03:55:43;;;;;;;16.17;11.02;;;;;;;22.36;100.00;101683.16;4922616;29;20055;-67
2023/07/09 03:58:09;;;;;;;14.27;10.23;;;;;;;22.37;100.00;101692.84;4930655;29;20048;-69
2023/07/09 04:00:36;;;;;;;15.32;10.85;;;;;;;22.35;100.00;101684.22;4915023;28;20051;-68
2023/07/09 04:03:02;;;;;;;17.92;11.73;;;;;;;22.35;100.00;101688.75;4924774;29;20075;-69
2023/07/09 04:05:29;;;;;;;13.98;10.95;;;;;;;22.37;100.00;101690.19;4932071;29;20515;-67
2023/07/09 04:07:56;;;;;;;14.25;11.18;;;;;;;22.41;100.00;101698.63;4924302;29;20059;-71
2023/07/09 04:10:22;;;;;;;16.50;10.88;;;;;;;22.40;100.00;101691.59;4928768;29;20327;-68
2023/07/09 04:12:49;;;;;;;16.55;11.80;;;;;;;22.44;100.00;101690.16;4914595;28;20111;-67
2023/07/09 04:15:15;;;;;;;20.10;11.98;;;;;;;22.45;100.00;101689.97;4910429;29;20127;-71
2023/07/09 04:17:42;;;;;;;15.23;11.10;;;;;;;22.46;100.00;101686.28;4903664;29;20142;-69
2023/07/09 04:20:09;;;;;;;16.02;11.20;;;;;;;22.49;100.00;101687.72;4932829;29;20047;-68
2023/07/09 04:22:37;;;;;;;15.48;10.68;;;;;;;22.49;100.00;101683.19;4934038;29;20055;-68
2023/07/09 04:25:06;;;;;;;17.50;11.70;;;;;;;22.49;100.00;101687.72;4927055;29;20055;-68
2023/07/09 04:27:33;;;;;;;16.40;11.00;;;;;;;22.47;100.00;101682.56;4930907;29;20058;-71
2023/07/09 04:30:00;;;;;;;17.40;11.35;;;;;;;22.48;100.00;101686.91;4922312;29;20055;-67
2023/07/09 04:32:27;;;;;;;15.55;10.27;;;;;;;22.49;100.00;101688.53;4928334;29;20102;-67
2023/07/09 04:34:54;;;;;;;14.50;10.05;;;;;;;22.50;100.00;101690.19;4909852;29;20055;-68
2023/07/09 04:37:20;;;;;;;16.08;10.85;;;;;;;22.51;100.00;101680.31;4933814;29;20043;-67
2023/07/09 04:39:47;;;;;;;15.82;11.60;;;;;;;22.52;100.00;101673.94;4915877;29;20452;-67
2023/07/09 04:42:15;;;;;;;15.57;12.10;;;;;;;22.53;100.00;101688.13;4922705;29;20055;-69
2023/07/09 04:44:44;;;;;;;18.40;11.93;;;;;;;22.53;100.00;101686.28;4925626;29;20417;-68
2023/07/09 04:47:12;;;;;;;16.85;11.52;;;;;;;22.52;100.00;101679.28;4926501;29;20051;-67
2023/07/09 04:49:39;;;;;;;17.77;11.00;;;;;;;22.56;100.00;101685.03;4933194;29;20083;-69
2023/07/09 04:52:06;;;;;;;14.07;11.50;;;;;;;22.59;100.00;101687.31;4928407;29;20052;-70
2023/07/09 04:54:32;;;;;;;23.67;12.77;;;;;;;22.62;100.00;101690.41;4921332;29;20166;-68
2023/07/09 04:56:59;;;;;;;15.38;12.18;;;;;;;22.62;100.00;101685.06;4923894;28;20087;-70
2023/07/09 04:59:26;;;;;;;18.10;12.82;;;;;;;22.61;100.00;101683.41;4927953;29;20134;-68
2023/07/09 05:01:52;;;;;;;20.95;13.05;;;;;;;22.70;100.00;101686.72;4932443;29;20059;-67
2023/07/09 05:04:19;;;;;;;15.77;12.02;;;;;;;22.77;100.00;101690.19;4926145;29;20429;-68
2023/07/09 05:06:47;;;;;;;22.30;12.48;;;;;;;22.82;100.00;101697.59;4914881;29;20052;-68
2023/07/09 05:09:14;;;;;;;18.13;12.85;;;;;;;22.84;100.00;101695.53;4925215;29;20047;-68
2023/07/09 05:11:40;;;;;;;18.05;12.15;;;;;;;22.88;100.00;101694.91;4929191;29;20059;-68
2023/07/09 05:14:07;;;;;;;20.85;12.88;;;;;;;22.93;100.00;101694.28;4928763;29;20049;-68
2023/07/09 05:16:33;;;;;;;19.65;12.63;;;;;;;22.92;100.00;101687.31;4929433;29;20079;-67
2023/07/09 05:19:00;;;;;;;17.58;12.95;;;;;;;23.01;100.00;101698.59;4930156;29;20111;-67
2023/07/09 05:21:27;;;;;;;17.15;13.00;;;;;;;23.05;100.00;101702.53;4908771;29;20138;-67
2023/07/09 05:23:53;;;;;;;20.65;12.15;;;;;;;23.15;100.00;101696.75;4929028;29;20077;-68
2023/07/09 05:26:20;;;;;;;17.60;12.98;;;;;;;23.22;100.00;101701.06;4923430;29;20079;-67
2023/07/09 05:28:46;;;;;;;18.85;13.40;;;;;;;23.29;100.00;101707.22;4932222;29;20052;-67
2023/07/09 05:31:13;;;;;;;19.70;13.77;;;;;;;23.34;100.00;101703.91;4929503;29;20106;-71
2023/07/09 05:33:39;;;;;;;20.15;12.18;;;;;;;23.36;100.00;101701.03;4923939;29;20064;-67
2023/07/09 05:36:07;;;;;;;19.73;12.85;;;;;;;23.38;100.00;101698.97;4926617;29;20080;-67
2023/07/09 05:38:33;;;;;;;19.08;13.43;;;;;;;23.49;100.00;101709.03;4923126;29;20106;-70
2023/07/09 05:41:02;;;;;;;18.58;12.35;;;;;;;23.57;100.00;101705.31;4930859;29;20075;-70
2023/07/09 05:43:30;;;;;;;17.27;12.65;;;;;;;23.64;100.00;101698.91;4926728;29;20059;-68
2023/07/09 05:45:57;;;;;;;17.40;13.02;;;;;;;23.72;100.00;101705.88;4925098;29;20070;-68
2023/07/09 05:48:23;;;;;;;19.73;12.38;;;;;;;23.79;100.00;101700.50;4927985;29;20826;-69
2023/07/09 05:50:53;;;;;;;17.25;12.85;;;;;;;23.87;100.00;101711.81;4921458;29;20138;-67
2023/07/09 05:53:19;;;;;;;18.38;13.13;;;;;;;23.89;100.00;101698.19;4928552;29;20051;-67
2023/07/09 05:55:46;;;;;;;18.42;12.90;;;;;;;23.96;100.00;101708.88;4928559;29;20721;-67
2023/07/09 05:58:12;;;;;;;20.33;12.65;;;;;;;24.01;100.00;101703.69;4933271;29;20502;-67
2023/07/09 06:00:41;;;;;;;21.50;12.43;;;;;;;24.08;100.00;101707.97;4926588;28;20060;-68
2023/07/09 06:03:07;;;;;;;16.65;12.60;;;;;;;24.13;100.00;101702.00;4925094;29;20055;-67
2023/07/09 06:05:35;;;;;;;17.20;12.55;;;;;;;24.19;100.00;101705.66;4925174;29;20067;-67
2023/07/09 06:08:02;;;;;;;17.88;12.52;;;;;;;24.23;100.00;101705.00;4932294;29;20501;-67
2023/07/09 06:10:30;;;;;;;15.88;12.73;;;;;;;24.28;100.00;101702.47;4926285;29;20055;-66
2023/07/09 06:12:58;;;;;;;15.95;11.80;;;;;;;24.34;100.00;101700.81;4922430;29;20146;-66
2023/07/09 06:15:25;;;;;;;17.48;12.63;;;;;;;24.37;100.00;101696.88;4922273;29;20138;-66
2023/07/09 06:17:52;;;;;;;16.63;11.90;;;;;;;24.40;100.00;101707.16;4922338;28;20201;-66
2023/07/09 06:20:19;;;;;;;20.70;13.48;;;;;;;24.47;100.00;101716.00;4924388;29;20052;-68
2023/07/09 06:22:45;;;;;;;15.82;11.88;;;;;;;24.52;100.00;101718.03;4930879;28;20185;-68
2023/07/09 06:25:12;;;;;;;20.13;11.98;;;;;;;24.58;100.00;101717.16;4911930;29;20119;-66
2023/07/09 06:27:38;;;;;;;21.35;12.60;;;;;;;24.65;100.00;101715.25;4925302;29;20052;-67
2023/07/09 06:30:06;;;;;;;15.95;11.65;;;;;;;24.71;100.00;101726.97;4921767;29;20043;-66
2023/07/09 06:32:32;;;;;;;17.17;11.90;;;;;;;24.78;100.00;101722.41;4912167;29;20369;-66
2023/07/09 06:34:58;;;;;;;16.35;12.27;;;;;;;24.83;100.00;101728.72;4926768;28;20051;-66
2023/07/09 06:37:25;;;;;;;18.75;13.07;;;;;;;24.89;100.00;101721.66;4929563;29;20752;-65
2023/07/09 06:39:51;;;;;;;16.80;11.93;;;;;;;24.93;100.00;101716.69;4929805;29;20047;-67
2023/07/09 06:42:18;;;;;;;17.75;12.43;;;;;;;24.99;100.00;101718.47;4921717;29;20051;-67
2023/07/09 06:44:44;;;;;;;19.27;11.80;;;;;;;25.06;100.00;101720.06;4915085;29;20377;-68
2023/07/09 06:47:11;;;;;;;16.83;11.43;;;;;;;25.12;100.00;101729.09;4922606;29;20106;-66
2023/07/09 06:49:37;;;;;;;16.42;11.10;;;;;;;25.17;100.00;101728.41;4932088;29;20134;-68
2023/07/09 06:52:04;;;;;;;16.08;11.30;;;;;;;25.24;100.00;101726.53;4926694;29;20051;-67
2023/07/09 06:54:31;;;;;;;15.73;11.73;;;;;;;25.34;100.00;101736.75;4933096;29;20051;-66
2023/07/09 06:56:57;;;;;;;16.17;10.32;;;;;;;25.41;100.00;101727.59;4925898;29;20354;-69
2023/07/09 06:59:24;;;;;;;16.25;11.02;;;;;;;25.50;100.00;101733.50;4924348;29;20087;-69
2023/07/09 07:01:50;;;;;;;18.90;10.80;;;;;;;25.55;100.00;101727.44;4930980;29;20047;-66
2023/07/09 07:04:17;;;;;;;17.27;11.40;;;;;;;25.59;100.00;101729.44;4924291;29;20076;-67
2023/07/09 07:06:44;;;;;;;16.83;10.90;;;;;;;25.61;100.00;101731.91;4929698;29;20043;-66
2023/07/09 07:09:12;;;;;;;17.23;10.63;;;;;;;25.66;100.00;101734.75;4925017;29;20048;-66
2023/07/09 07:11:39;;;;;;;16.52;10.75;;;;;;;25.72;100.00;101735.69;4923506;29;20055;-67
2023/07/09 07:14:06;;;;;;;13.52;10.05;;;;;;;25.78;100.00;101730.25;4905946;29;20055;-68
2023/07/09 07:16:32;;;;;;;17.95;10.40;;;;;;;25.85;100.00;101738.22;4930827;29;20126;-66
2023/07/09 07:18:59;;;;;;;13.98;9.23;;;;;;;25.88;100.00;101729.72;4930741;29;20055;-66
2023/07/09 07:21:25;;;;;;;15.73;9.98;;;;;;;25.96;100.00;101737.50;4923841;29;20527;-66
2023/07/09 07:23:52;;;;;;;17.70;9.55;;;;;;;26.00;100.00;101727.91;4929508;29;20058;-66
2023/07/09 07:26:19;;;;;;;16.23;9.63;;;;;;;26.08;100.00;101729.47;4914691;28;20669;-66
2023/07/09 07:28:46;;;;;;;14.65;9.27;;;;;;;26.12;100.00;101722.59;4915148;29;20055;-66
2023/07/09 07:31:13;;;;;;;17.08;9.73;;;;;;;26.20;98.57;101722.25;4908772;28;20218;-65
2023/07/09 07:33:41;;;;;;;13.10;8.73;;;;;;;26.31;97.48;101709.91;4929575;29;20067;-66
2023/07/09 07:36:08;;;;;;;12.50;8.60;;;;;;;26.40;99.64;101716.59;4929970;29;20134;-65
2023/07/09 07:38:38;;;;;;;13.27;8.70;;;;;;;26.48;96.06;101715.44;4920551;29;20060;-66
2023/07/09 07:41:04;;;;;;;12.07;8.88;;;;;;;26.59;98.08;101709.28;4930272;29;20055;-66
2023/07/09 07:43:31;;;;;;;15.55;8.98;;;;;;;26.65;97.91;101710.22;4922222;29;20122;-67
2023/07/09 07:45:57;;;;;;;17.33;9.40;;;;;;;26.73;100.00;101709.06;4930376;29;20059;-67
2023/07/09 07:48:24;;;;;;;12.85;9.60;;;;;;;26.77;100.00;101715.63;4925332;28;20059;-67
2023/07/09 07:50:50;;;;;;;15.23;9.13;;;;;;;26.85;95.30;101715.28;4929893;29;20324;-66
2023/07/09 07:53:16;;;;;;;13.52;7.50;;;;;;;26.91;95.92;101717.03;4913984;29;20118;-67
2023/07/09 07:55:43;;;;;;;15.70;8.38;;;;;;;26.99;94.63;101721.25;4923620;28;20102;-66
2023/07/09 07:58:12;;;;;;;13.13;8.38;;;;;;;27.10;91.79;101714.22;4931082;29;20075;-67
2023/07/09 08:00:39;;;;;;;17.80;8.85;;;;;;;27.16;94.56;101719.47;4924112;28;20202;-68
2023/07/09 08:03:06;;;;;;;12.25;7.30;;;;;;;27.27;92.22;101714.38;4910798;29;20048;-66
2023/07/09 08:05:33;;;;;;;13.95;9.20;;;;;;;27.34;92.61;101710.47;4919552;28;20066;-66
2023/07/09 08:08:00;;;;;;;13.20;8.20;;;;;;;27.48;88.65;101715.59;4924762;29;20051;-68
2023/07/09 08:10:26;;;;;;;10.93;7.93;;;;;;;27.58;88.52;101711.25;4931119;29;20162;-66
2023/07/09 08:12:56;;;;;;;13.88;8.75;;;;;;;27.65;87.44;101710.28;4904586;29;20780;-66
2023/07/09 08:15:27;;;;;;;12.90;7.75;;;;;;;27.77;87.88;101713.75;4930700;29;20044;-66
2023/07/09 08:17:53;;;;;;;15.00;9.50;;;;;;;27.79;85.32;101709.75;4908254;29;20087;-68
2023/07/09 08:20:20;;;;;;;11.93;8.57;;;;;;;27.88;83.61;101714.81;4927447;29;20061;-69
2023/07/09 08:22:46;;;;;;;22.33;7.97;;;;;;;28.01;84.83;101714.50;4924288;29;20165;-66
2023/07/09 08:25:13;;;;;;;15.15;8.68;;;;;;;28.09;82.12;101713.28;4919878;29;20135;-67
2023/07/09 08:27:39;;;;;;;14.07;8.82;;;;;;;28.15;83.31;101715.84;4913682;29;20080;-67
2023/07/09 08:30:06;;;;;;;10.93;7.38;;;;;;;28.22;84.28;101707.59;4926791;29;20051;-67
2023/07/09 08:32:33;;;;;;;14.27;8.75;;;;;;;28.30;78.60;101707.19;4931394;29;20107;-67
2023/07/09 08:34:59;;;;;;;10.80;7.32;;;;;;;28.51;82.53;101707.56;4919461;28;20056;-66
2023/07/09 08:37:29;;;;;;;13.60;8.10;;;;;;;28.65;80.21;101697.25;4934486;29;20147;-66
2023/07/09 08:39:56;;;;;;;12.00;8.30;;;;;;;28.94;80.26;101706.06;4929910;29;20083;-66
2023/07/09 08:42:38;;;;;;;12.90;7.85;;;;;;;29.29;77.32;101702.25;4934770;29;20126;-67
2023/07/09 08:45:38;;;;;;;15.40;9.98;;;;;;;29.59;74.32;101704.50;4927620;29;20052;-68
2023/07/09 08:48:13;;;;;;;15.48;8.40;;;;;;;29.90;73.98;101705.69;4930003;29;20052;-66
2023/07/09 08:50:45;;;;;;;15.15;8.30;;;;;;;30.24;72.05;101718.16;4933827;29;20127;-67
2023/07/09 08:53:21;;;;;;;15.82;8.32;;;;;;;30.54;70.86;101715.75;4927675;29;20103;-67
2023/07/09 08:55:51;;;;;;;10.30;7.25;;;;;;;30.84;69.98;101705.41;4926081;29;20051;-66
2023/07/09 08:58:24;;;;;;;12.27;8.32;;;;;;;31.16;67.06;101701.81;4921228;28;20051;-68
2023/07/09 09:00:55;;;;;;;13.18;7.88;;;;;;;31.37;64.40;101700.00;4912948;29;20067;-69
2023/07/09 09:03:38;;;;;;;13.32;7.68;;;;;;;31.64;65.41;101694.44;4922626;29;20131;-67
2023/07/09 09:06:15;;;;;;;11.95;7.07;;;;;;;31.86;64.10;101702.34;4929294;29;20513;-68
2023/07/09 09:08:59;;;;;;;14.57;8.55;;;;;;;32.08;61.78;101697.50;4929550;28;20052;-67
2023/07/09 09:11:48;;;;;;;13.00;9.63;;;;;;;32.31;61.44;101704.28;4934142;29;20075;-67
2023/07/09 09:14:35;;;;;;;12.57;7.97;;;;;;;32.66;62.70;101694.53;4922059;29;20201;-67
2023/07/09 09:17:11;;;;;;;12.07;7.47;;;;;;;32.94;60.12;101695.00;4929357;29;20051;-65
2023/07/09 09:19:48;;;;;;;12.57;8.00;;;;;;;33.15;57.98;101693.06;4914342;29;20154;-66
2023/07/09 09:22:21;;;;;;;11.63;7.68;;;;;;;33.36;56.54;101688.31;4934464;29;20063;-65
2023/07/09 09:25:04;;;;;;;13.20;8.32;;;;;;;33.54;57.22;101681.47;4934214;29;20143;-65
2023/07/09 09:27:31;;;;;;;9.75;7.07;;;;;;;33.72;56.23;101685.44;4926749;29;20083;-68
2023/07/09 09:29:58;;;;;;;12.65;7.22;;;;;;;33.84;55.48;101685.09;4933940;29;20044;-66
2023/07/09 09:32:27;;;;;;;10.13;7.60;;;;;;;34.06;55.11;101688.19;4928585;29;20043;-65
2023/07/09 09:34:55;;;;;;;10.48;7.35;;;;;;;34.21;54.27;101686.47;4933720;29;20662;-66
2023/07/09 09:37:29;;;;;;;;;;;;;;;34.29;51.77;101676.88;4929320;29;20052;-65
2023/07/09 09:39:58;;;;;;;15.07;7.30;;;;;;;34.42;54.09;101687.09;4921248;29;19927;-65
2023/07/09 09:42:43;;;;;;;;;;;;;;;34.62;52.93;101686.09;4926029;29;20051;-66
2023/07/09 09:45:16;;;;;;;10.98;7.90;;;;;;;34.76;50.58;101684.34;4930648;29;20419;-66
2023/07/09 09:47:44;;;;;;;13.15;6.95;;;;;;;34.97;51.84;101678.63;4935408;29;20467;-67
2023/07/09 09:50:20;;;;;;;11.63;7.80;;;;;;;35.07;52.13;101686.72;4929405;29;20086;-65
2023/07/09 09:52:49;;;;;;;10.90;7.18;;;;;;;35.19;51.13;101680.88;4936792;29;20055;-65
2023/07/09 09:55:28;;;;;;;9.93;7.00;;;;;;;35.38;50.58;101687.16;4924635;29;20044;-65
2023/07/09 09:57:54;;;;;;;10.55;7.28;;;;;;;35.45;50.76;101687.59;4927589;29;20056;-67
2023/07/09 10:00:24;;;;;;;11.73;7.60;;;;;;;35.58;50.15;101682.53;4928221;29;20093;-67
2023/07/09 10:03:01;;;;;;;12.48;7.20;;;;;;;35.53;49.68;101680.66;4930816;29;20056;-66
2023/07/09 10:05:38;;;;;;;10.82;7.85;;;;;;;35.69;52.42;101683.19;4929902;29;20152;-65
2023/07/09 10:08:35;;;;;;;9.30;7.10;;;;;;;35.93;50.91;101688.53;4927272;29;20079;-65
2023/07/09 10:11:39;;;;;;;10.90;7.97;;;;;;;36.08;50.04;101691.03;4925438;29;20055;-64
2023/07/09 10:14:22;;;;;;;8.93;6.50;;;;;;;36.16;45.73;101674.00;4901121;29;20138;-64
2023/07/09 10:16:57;;;;;;;11.23;6.78;;;;;;;36.30;44.55;101665.03;4929341;29;20086;-65
2023/07/09 10:19:56;;;;;;;8.85;6.28;;;;;;;36.47;46.84;101659.78;4925781;29;20138;-65
2023/07/09 10:22:37;;;;;;;10.55;6.75;;;;;;;36.52;46.82;101656.97;4902122;29;20075;-68
2023/07/09 10:25:13;;;;;;;12.45;7.95;;;;;;;36.77;46.66;101649.41;4903254;29;20931;-65
2023/07/09 10:27:58;;;;;;;11.40;7.10;;;;;;;36.85;47.88;101640.47;4929434;29;20127;-65
2023/07/09 10:30:46;;;;;;;12.18;7.13;;;;;;;36.94;46.55;101638.66;4922367;29;20086;-66
2023/07/09 10:33:44;;;;;;;13.98;7.00;;;;;;;36.99;45.87;101638.56;4924543;29;20075;-65
2023/07/09 10:37:04;;;;;;;8.80;6.22;;;;;;;37.17;44.44;101639.56;4916910;29;20055;-65
2023/07/09 10:39:36;;;;;;;8.55;6.53;;;;;;;37.26;44.29;101634.16;4906235;29;20416;-66
2023/07/09 10:42:03;;;;;;;10.25;6.47;;;;;;;37.38;44.03;101639.91;4902639;29;20052;-66
2023/07/09 10:44:35;;;;;;;8.35;6.32;;;;;;;37.47;43.66;101637.25;4909645;29;20055;-66
2023/07/09 10:47:12;;;;;;;8.27;5.85;;;;;;;37.53;44.38;101638.72;4902066;29;20571;-66
2023/07/09 10:49:42;;;;;;;9.00;5.95;;;;;;;37.57;43.66;101641.66;4909699;29;20139;-65
2023/07/09 10:52:37;;;;;;;9.77;6.32;;;;;;;37.71;43.12;101631.47;4898404;29;20063;-64
2023/07/09 10:55:25;;;;;;;11.05;6.20;;;;;;;37.78;43.11;101642.00;4898048;29;20059;-64
2023/07/09 10:57:57;;;;;;;10.10;6.05;;;;;;;37.70;42.84;101640.03;4899658;29;20048;-65
2023/07/09 11:00:35;;;;;;;10.75;5.97;;;;;;;37.85;41.33;101642.38;4908143;29;20052;-65
2023/07/09 11:03:16;;;;;;;8.15;5.75;;;;;;;37.94;43.94;101643.25;4906978;29;20093;-66
2023/07/09 11:05:43;;;;;;;12.80;6.25;;;;;;;38.14;42.64;101649.34;4905417;28;20063;-65
2023/07/09 11:08:24;;;;;;;12.77;6.13;;;;;;;38.33;42.29;101646.38;4902826;29;20488;-65
2023/07/09 11:10:56;;;;;;;8.27;5.97;;;;;;;38.19;40.70;101643.75;4904505;29;20128;-64
2023/07/09 11:13:35;;;;;;;12.07;6.22;;;;;;;38.43;41.30;101648.84;4918301;29;20496;-64
2023/07/09 11:16:14;;;;;;;11.50;6.60;;;;;;;38.49;40.34;101644.81;4922339;28;20070;-64
2023/07/09 11:18:41;;;;;;;8.52;6.32;;;;;;;38.50;38.75;101640.97;4923094;29;20540;-65
2023/07/09 11:21:15;;;;;;;8.85;6.13;;;;;;;38.27;40.74;101637.50;4903415;29;20118;-65
2023/07/09 11:23:54;;;;;;;10.52;6.20;;;;;;;38.47;40.15;101629.84;4913482;29;20055;-65